Time;durP1;ratioP1;P1;durP2;ratioP2;P2;SDS_P1;SDS_P2;PMS_P1;PMS_P2;Temp;Humidity;BMP_temperature;BMP_pressure;BME280_temperature;BME280_humidity;BME280_pressure;Samples;Min_cycle;Max_cycle;Signal;HPM_P1;HPM_P2
2022/07/20 00:01:04;;;;;;;9.10;3.03;;;26.20;1.00;;;;;;4953226;29;20216;-63
2022/07/20 00:03:31;;;;;;;4.03;2.90;;;26.20;1.00;;;;;;4953296;29;20209;-63
2022/07/20 00:05:58;;;;;;;3.73;2.87;;;26.20;1.00;;;;;;4952605;29;20692;-63
2022/07/20 00:11:23;;;;;;;5.17;2.70;;;26.20;1.00;;;;;;4953019;29;20201;-63
2022/07/20 00:13:54;;;;;;;5.27;3.20;;;26.10;1.00;;;;;;4953208;29;20205;-63
2022/07/20 00:16:24;;;;;;;3.40;2.63;;;26.10;1.00;;;;;;4952853;29;20268;-63
2022/07/20 00:18:51;;;;;;;5.97;2.90;;;26.10;1.00;;;;;;4953324;29;20325;-63
2022/07/20 00:21:19;;;;;;;4.43;2.47;;;26.10;1.00;;;;;;4953120;29;20213;-64
2022/07/20 00:23:46;;;;;;;4.27;2.70;;;26.10;1.00;;;;;;4953034;29;20213;-63
2022/07/20 00:26:13;;;;;;;4.43;2.90;;;26.10;1.00;;;;;;4954811;28;20232;-63
2022/07/20 00:28:39;;;;;;;5.67;2.83;;;26.10;1.00;;;;;;4956083;29;20228;-63
2022/07/20 00:31:08;;;;;;;5.73;2.87;;;26.00;1.00;;;;;;4956797;29;20268;-63
2022/07/20 00:33:34;;;;;;;5.40;2.83;;;25.90;1.00;;;;;;4956447;29;20213;-63
2022/07/20 00:36:01;;;;;;;5.53;3.20;;;26.00;1.00;;;;;;4956191;29;20213;-63
2022/07/20 00:38:28;;;;;;;4.73;2.90;;;25.90;1.00;;;;;;4956295;29;20265;-63
2022/07/20 00:40:54;;;;;;;4.73;3.00;;;25.90;1.00;;;;;;4956239;29;20213;-63
2022/07/20 00:43:21;;;;;;;11.30;3.10;;;25.80;1.00;;;;;;4956098;29;20213;-63
2022/07/20 00:45:48;;;;;;;5.77;3.07;;;25.80;1.00;;;;;;4955876;29;20743;-63
2022/07/20 00:48:16;;;;;;;2.70;2.50;;;25.70;1.00;;;;;;4956155;29;20212;-64
2022/07/20 00:50:42;;;;;;;5.30;2.80;;;25.70;1.00;;;;;;4955852;29;20726;-64
2022/07/20 00:53:09;;;;;;;5.13;3.50;;;25.60;1.00;;;;;;4956196;29;20257;-63
2022/07/20 00:55:36;;;;;;;4.87;2.80;;;25.60;1.00;;;;;;4955883;29;20633;-63
2022/07/20 00:58:03;;;;;;;4.27;2.53;;;25.50;1.00;;;;;;4955547;29;20209;-63
2022/07/20 01:00:30;;;;;;;4.93;3.50;;;25.50;1.00;;;;;;4956096;29;20233;-62
2022/07/20 01:02:57;;;;;;;4.47;2.83;;;25.40;1.00;;;;;;4955770;29;20680;-63
2022/07/20 01:05:25;;;;;;;3.13;2.70;;;25.40;1.00;;;;;;4955756;29;20236;-63
2022/07/20 01:07:51;;;;;;;5.57;3.00;;;25.40;1.00;;;;;;4955393;29;20629;-63
2022/07/20 01:10:19;;;;;;;3.53;2.97;;;25.40;1.00;;;;;;4955591;29;20229;-62
2022/07/20 01:12:48;;;;;;;6.27;2.60;;;25.30;1.00;;;;;;4955666;29;20237;-63
2022/07/20 01:15:15;;;;;;;7.37;2.73;;;25.30;1.00;;;;;;4955918;29;20292;-63
2022/07/20 01:17:41;;;;;;;4.83;3.00;;;25.30;1.00;;;;;;4955322;29;20212;-64
2022/07/20 01:20:14;;;;;;;3.53;2.83;;;25.40;1.00;;;;;;4955502;29;20264;-64
2022/07/20 01:22:42;;;;;;;6.03;3.27;;;25.40;1.00;;;;;;4955597;29;20746;-64
2022/07/20 01:25:09;;;;;;;5.77;2.73;;;25.40;1.00;;;;;;4955082;29;20225;-64
2022/07/20 01:27:36;;;;;;;4.10;3.20;;;25.40;1.00;;;;;;4955013;29;20272;-64
2022/07/20 01:30:03;;;;;;;4.50;3.00;;;25.50;1.00;;;;;;4955356;29;20287;-63
2022/07/20 01:32:30;;;;;;;4.87;2.60;;;25.40;1.00;;;;;;4955550;29;20260;-64
2022/07/20 01:34:56;;;;;;;4.67;2.53;;;25.40;1.00;;;;;;4955224;29;20259;-64
2022/07/20 01:37:23;;;;;;;5.27;3.07;;;25.40;1.00;;;;;;4953737;28;20228;-64
2022/07/20 01:39:52;;;;;;;7.00;2.67;;;25.40;1.00;;;;;;4955220;29;20237;-64
2022/07/20 01:42:19;;;;;;;4.33;2.70;;;25.50;1.00;;;;;;4954958;29;20655;-63
2022/07/20 01:44:45;;;;;;;6.40;3.20;;;25.50;1.00;;;;;;4955229;29;20252;-64
2022/07/20 01:47:12;;;;;;;7.83;3.07;;;25.50;1.00;;;;;;4954764;29;20205;-64
2022/07/20 01:49:38;;;;;;;5.77;2.73;;;25.40;1.00;;;;;;4954966;29;20276;-64
2022/07/20 01:52:05;;;;;;;5.67;2.67;;;25.40;1.00;;;;;;4954560;29;20630;-63
2022/07/20 01:54:32;;;;;;;9.33;2.97;;;25.40;1.00;;;;;;4955205;29;20268;-64
2022/07/20 01:57:00;;;;;;;4.93;2.70;;;25.40;1.00;;;;;;4954733;29;20213;-64
2022/07/20 01:59:27;;;;;;;4.07;2.60;;;25.40;1.00;;;;;;4955016;29;20299;-64
2022/07/20 02:01:53;;;;;;;7.37;3.00;;;25.40;1.00;;;;;;4954992;29;20688;-63
2022/07/20 02:04:20;;;;;;;5.10;2.80;;;25.30;1.00;;;;;;4954692;29;20213;-64
2022/07/20 02:06:47;;;;;;;5.53;3.03;;;25.30;1.00;;;;;;4954224;29;20229;-63
2022/07/20 02:09:13;;;;;;;6.27;2.93;;;25.20;1.00;;;;;;4955064;29;20236;-63
2022/07/20 02:11:40;;;;;;;5.20;3.23;;;25.20;1.00;;;;;;4954771;29;20220;-63
2022/07/20 02:14:08;;;;;;;5.17;2.93;;;25.20;1.00;;;;;;4954581;29;20209;-63
2022/07/20 02:16:34;;;;;;;3.67;2.70;;;25.10;1.00;;;;;;4954296;29;20215;-63
2022/07/20 02:19:01;;;;;;;3.57;2.70;;;25.10;1.00;;;;;;4954468;29;20291;-63
2022/07/20 02:21:29;;;;;;;4.67;2.90;;;25.00;1.00;;;;;;4954247;29;20267;-63
2022/07/20 02:23:56;;;;;;;4.93;2.63;;;25.00;1.00;;;;;;4954764;29;20219;-64
2022/07/20 02:26:23;;;;;;;4.07;2.60;;;24.90;1.00;;;;;;4953742;29;20626;-63
2022/07/20 02:28:50;;;;;;;6.60;2.73;;;24.90;1.00;;;;;;4954388;29;20295;-64
2022/07/20 02:31:19;;;;;;;5.10;2.63;;;24.80;1.00;;;;;;4954107;29;20677;-64
2022/07/20 02:33:46;;;;;;;3.63;2.80;;;24.80;1.00;;;;;;4954154;29;20657;-64
2022/07/20 02:36:12;;;;;;;7.37;3.00;;;24.80;1.00;;;;;;4953999;29;20217;-63
2022/07/20 02:38:39;;;;;;;4.00;2.47;;;24.80;1.00;;;;;;4953635;29;20720;-64
2022/07/20 02:41:06;;;;;;;6.17;2.87;;;24.90;1.00;;;;;;4954078;29;20687;-64
2022/07/20 02:43:33;;;;;;;5.47;3.30;;;24.90;1.00;;;;;;4953919;29;20727;-63
2022/07/20 02:46:00;;;;;;;3.57;2.57;;;24.90;1.00;;;;;;4953851;29;20229;-64
2022/07/20 02:48:28;;;;;;;6.37;2.53;;;24.90;1.00;;;;;;4953625;28;20209;-62
2022/07/20 02:50:55;;;;;;;3.60;2.60;;;24.90;1.00;;;;;;4954069;29;20751;-63
2022/07/20 02:53:22;;;;;;;6.23;3.00;;;24.90;1.00;;;;;;4954056;29;20272;-64
2022/07/20 02:55:48;;;;;;;5.33;3.07;;;24.90;1.00;;;;;;4953954;29;20381;-64
2022/07/20 02:58:15;;;;;;;4.93;3.03;;;24.90;1.00;;;;;;4953603;29;20213;-63
2022/07/20 03:00:42;;;;;;;4.87;2.90;;;24.90;1.00;;;;;;4953664;29;20232;-64
2022/07/20 03:03:10;;;;;;;6.70;2.70;;;24.90;1.00;;;;;;4953777;29;20272;-63
2022/07/20 03:05:38;;;;;;;3.60;2.63;;;24.90;1.00;;;;;;4953804;29;20229;-63
2022/07/20 03:08:06;;;;;;;6.70;3.23;;;25.00;1.00;;;;;;4953731;29;20273;-63
2022/07/20 03:10:32;;;;;;;4.67;2.63;;;25.00;1.00;;;;;;4953694;29;20307;-64
2022/07/20 03:12:59;;;;;;;4.10;2.73;;;25.00;1.00;;;;;;4953705;29;20676;-63
2022/07/20 03:15:26;;;;;;;4.13;3.00;;;25.20;1.00;;;;;;4953952;29;20680;-63
2022/07/20 03:17:54;;;;;;;6.33;3.30;;;25.20;1.00;;;;;;4953793;29;20232;-62
2022/07/20 03:20:23;;;;;;;5.60;2.60;;;25.30;1.00;;;;;;4954045;29;20723;-63
2022/07/20 03:22:52;;;;;;;4.50;3.43;;;25.60;1.00;;;;;;4953804;28;20212;-62
2022/07/20 03:25:19;;;;;;;6.33;2.60;;;25.70;1.00;;;;;;4953848;29;20229;-63
2022/07/20 03:27:46;;;;;;;5.30;3.17;;;26.00;1.00;;;;;;4953290;29;20213;-63
2022/07/20 03:30:16;;;;;;;5.73;2.70;;;26.10;1.00;;;;;;4953573;29;20288;-63
2022/07/20 03:32:42;;;;;;;3.70;2.83;;;26.20;1.00;;;;;;4954293;29;20211;-63
2022/07/20 03:35:09;;;;;;;5.77;3.00;;;26.30;1.00;;;;;;4953686;29;20213;-63
2022/07/20 03:37:36;;;;;;;6.40;3.30;;;26.30;1.00;;;;;;4953378;29;20213;-63
2022/07/20 03:40:05;;;;;;;5.40;2.37;;;26.40;1.00;;;;;;4953636;29;20224;-63
2022/07/20 03:42:32;;;;;;;6.27;2.70;;;26.50;1.00;;;;;;4953511;29;20209;-63
2022/07/20 03:44:59;;;;;;;6.40;2.67;;;26.60;10.60;;;;;;4953719;29;20268;-63
2022/07/20 03:47:26;;;;;;;5.37;2.73;;;26.60;1.00;;;;;;4953191;29;20233;-64
2022/07/20 03:49:53;;;;;;;3.93;2.80;;;26.60;1.00;;;;;;4953496;29;20300;-63
2022/07/20 03:52:21;;;;;;;4.77;2.90;;;26.60;1.00;;;;;;4953360;29;20209;-62
2022/07/20 03:54:47;;;;;;;5.20;3.00;;;26.60;1.00;;;;;;4953421;29;20208;-64
2022/07/20 03:57:16;;;;;;;4.87;2.80;;;26.60;1.00;;;;;;4953009;29;20244;-64
2022/07/20 03:59:42;;;;;;;6.07;3.13;;;26.60;1.00;;;;;;4953501;28;20229;-63
2022/07/20 04:02:09;;;;;;;6.13;3.10;;;26.60;1.00;;;;;;4956939;29;20212;-64
2022/07/20 04:04:36;;;;;;;5.33;3.03;;;26.60;1.00;;;;;;4957111;29;20208;-64
2022/07/20 04:07:02;;;;;;;5.40;2.90;;;26.70;1.00;;;;;;4956376;29;20229;-64
2022/07/20 04:12:16;;;;;;;4.33;3.10;;;26.60;1.00;;;;;;4956885;29;20204;-64
2022/07/20 04:14:43;;;;;;;5.63;3.20;;;26.70;1.00;;;;;;4956805;29;20264;-64
2022/07/20 04:17:10;;;;;;;7.43;3.57;;;26.60;1.00;;;;;;4956437;29;20205;-64
2022/07/20 04:19:37;;;;;;;6.73;3.00;;;26.60;1.00;;;;;;4956538;29;20236;-63
2022/07/20 04:22:04;;;;;;;5.57;2.87;;;26.70;1.00;;;;;;4956500;29;20669;-64
2022/07/20 04:24:31;;;;;;;8.97;3.20;;;26.60;1.00;;;;;;4956678;29;20284;-63
2022/07/20 04:26:58;;;;;;;5.23;2.70;;;26.60;1.00;;;;;;4956394;29;20641;-63
2022/07/20 04:29:26;;;;;;;7.63;3.03;;;26.50;1.10;;;;;;4956648;29;20241;-63
2022/07/20 04:31:52;;;;;;;5.93;2.90;;;26.50;1.00;;;;;;4956415;29;20292;-63
2022/07/20 04:34:19;;;;;;;5.77;3.17;;;26.50;1.00;;;;;;4956386;29;20742;-61
2022/07/20 04:36:46;;;;;;;5.17;2.83;;;26.50;1.90;;;;;;4943532;29;20818;-61
2022/07/20 04:39:13;;;;;;;6.50;3.10;;;26.40;1.40;;;;;;4942925;29;20644;-62
2022/07/20 04:41:39;;;;;;;8.57;3.10;;;26.40;1.00;;;;;;4936729;29;20265;-62
2022/07/20 04:44:06;;;;;;;5.83;3.30;;;26.30;1.00;;;;;;4936964;29;20268;-62
2022/07/20 04:46:34;;;;;;;6.73;3.40;;;26.30;1.30;;;;;;4936239;29;20709;-61
2022/07/20 04:49:01;;;;;;;4.33;3.23;;;26.20;1.00;;;;;;4942622;29;20811;-62
2022/07/20 04:51:28;;;;;;;5.63;3.57;;;26.30;1.40;;;;;;4943360;29;20217;-62
2022/07/20 04:53:54;;;;;;;8.37;3.60;;;26.20;1.00;;;;;;4946149;29;20208;-61
2022/07/20 04:56:22;;;;;;;8.23;3.30;;;26.20;1.10;;;;;;4941378;29;20273;-61
2022/07/20 04:58:52;;;;;;;4.37;3.20;;;26.30;1.10;;;;;;4936145;29;20276;-62
2022/07/20 05:01:19;;;;;;;9.73;6.23;;;26.30;2.50;;;;;;4936246;29;20641;-62
2022/07/20 05:03:47;;;;;;;8.23;4.60;;;26.40;2.30;;;;;;4936297;29;20752;-62
2022/07/20 05:06:14;;;;;;;6.50;3.07;;;26.40;3.40;;;;;;4947658;29;20224;-62
2022/07/20 05:08:41;;;;;;;5.83;3.10;;;26.40;3.30;;;;;;4955162;29;20735;-62
2022/07/20 05:11:07;;;;;;;4.53;3.20;;;26.50;3.90;;;;;;4954905;28;20213;-62
2022/07/20 05:13:34;;;;;;;6.50;3.13;;;26.60;4.30;;;;;;4955508;29;20212;-62
2022/07/20 05:16:01;;;;;;;9.57;3.47;;;26.70;4.80;;;;;;4954295;29;20209;-63
2022/07/20 05:18:29;;;;;;;6.77;3.23;;;26.70;5.50;;;;;;4951647;29;20253;-63
2022/07/20 05:20:57;;;;;;;5.27;3.40;;;26.80;5.40;;;;;;4936410;29;20297;-62
2022/07/20 05:23:24;;;;;;;5.07;3.37;;;26.90;5.90;;;;;;4935923;29;20210;-67
2022/07/20 05:25:51;;;;;;;5.03;2.70;;;26.90;5.80;;;;;;4943161;29;20205;-62
2022/07/20 05:28:20;;;;;;;4.10;3.20;;;27.00;6.10;;;;;;4954572;29;20221;-62
2022/07/20 05:30:46;;;;;;;5.90;3.20;;;27.00;7.10;;;;;;4954225;29;20713;-64
2022/07/20 05:33:13;;;;;;;7.70;3.33;;;27.00;6.60;;;;;;4938556;29;20213;-64
2022/07/20 05:35:40;;;;;;;8.07;3.30;;;27.00;7.10;;;;;;4942636;29;20208;-66
2022/07/20 05:38:09;;;;;;;6.57;3.77;;;27.00;7.80;;;;;;4940021;29;20268;-62
2022/07/20 05:40:35;;;;;;;8.10;3.13;;;27.00;7.90;;;;;;4935590;29;20292;-61
2022/07/20 05:43:02;;;;;;;9.00;3.47;;;27.00;7.90;;;;;;4935872;29;20209;-61
2022/07/20 05:45:28;;;;;;;7.27;3.57;;;27.10;8.40;;;;;;4935765;29;20708;-61
2022/07/20 05:47:55;;;;;;;9.33;3.17;;;27.10;9.60;;;;;;4934918;29;20280;-61
2022/07/20 05:50:22;;;;;;;6.97;3.20;;;27.10;8.90;;;;;;4936031;29;20229;-61
2022/07/20 05:52:48;;;;;;;4.30;2.80;;;27.00;10.20;;;;;;4935837;29;20198;-61
2022/07/20 05:55:16;;;;;;;4.50;3.13;;;27.00;9.10;;;;;;4935927;29;20673;-67
2022/07/20 05:57:44;;;;;;;7.70;3.67;;;26.90;9.20;;;;;;4932386;29;20206;-66
2022/07/20 06:00:11;;;;;;;6.37;3.87;;;26.70;8.50;;;;;;4948024;28;20232;-67
2022/07/20 06:02:38;;;;;;;6.07;3.20;;;26.60;9.10;;;;;;4938204;29;20209;-64
2022/07/20 06:05:05;;;;;;;6.20;4.50;;;26.60;9.20;;;;;;4953396;29;20220;-67
2022/07/20 06:07:32;;;;;;;5.77;4.00;;;26.50;9.10;;;;;;4953873;28;20232;-62
2022/07/20 06:09:59;;;;;;;7.70;3.97;;;26.40;10.00;;;;;;4950900;29;20244;-62
2022/07/20 06:12:27;;;;;;;6.43;4.23;;;26.30;9.10;;;;;;4934820;29;20260;-62
2022/07/20 06:14:53;;;;;;;5.50;4.23;;;26.10;9.00;;;;;;4934920;29;20213;-62
2022/07/20 06:17:20;;;;;;;11.97;5.77;;;26.10;9.40;;;;;;4934027;29;20209;-61
2022/07/20 06:19:46;;;;;;;11.43;5.43;;;26.00;23.00;;;;;;4934762;29;20291;-62
2022/07/20 06:22:13;;;;;;;11.77;7.00;;;25.80;11.60;;;;;;4934121;29;20221;-63
2022/07/20 06:24:40;;;;;;;10.77;7.63;;;25.50;12.40;;;;;;4934292;29;20213;-64
2022/07/20 06:27:06;;;;;;;12.63;8.07;;;25.60;34.90;;;;;;4933708;29;20454;-64
2022/07/20 06:29:34;;;;;;;19.50;8.30;;;25.40;39.00;;;;;;4934498;29;20305;-65
2022/07/20 06:32:01;;;;;;;15.87;9.30;;;25.40;38.10;;;;;;4934877;29;20213;-64
2022/07/20 06:34:28;;;;;;;15.60;8.80;;;25.40;39.90;;;;;;4934075;29;20206;-64
2022/07/20 06:36:54;;;;;;;15.00;9.93;;;25.50;42.20;;;;;;4943907;29;20263;-65
2022/07/20 06:39:21;;;;;;;14.57;9.40;;;25.50;46.00;;;;;;4953119;29;20280;-65
2022/07/20 06:41:48;;;;;;;19.93;9.47;;;25.40;46.50;;;;;;4953055;29;20221;-65
2022/07/20 06:44:16;;;;;;;14.63;9.53;;;25.40;47.90;;;;;;4953894;29;20205;-64
2022/07/20 06:46:44;;;;;;;19.53;11.10;;;25.40;51.90;;;;;;4953116;29;20235;-62
2022/07/20 06:49:11;;;;;;;14.17;10.67;;;25.40;52.50;;;;;;4953267;29;20233;-63
2022/07/20 06:51:38;;;;;;;16.77;11.93;;;25.50;54.20;;;;;;4952945;29;20746;-62
2022/07/20 06:54:05;;;;;;;15.87;11.30;;;25.60;55.90;;;;;;4952957;29;20213;-62
2022/07/20 06:56:31;;;;;;;17.93;11.67;;;25.60;56.70;;;;;;4952956;29;20213;-63
2022/07/20 06:58:58;;;;;;;21.77;12.40;;;25.60;60.00;;;;;;4952352;29;20229;-63
2022/07/20 07:01:25;;;;;;;19.30;12.20;;;25.60;61.20;;;;;;4953286;29;20212;-63
2022/07/20 07:03:53;;;;;;;21.27;12.47;;;25.70;62.40;;;;;;4953244;29;20303;-62
2022/07/20 07:06:21;;;;;;;22.87;13.07;;;25.70;66.60;;;;;;4952739;29;20209;-62
2022/07/20 07:08:48;;;;;;;20.57;12.20;;;25.70;67.50;;;;;;4952730;29;20281;-61
2022/07/20 07:11:15;;;;;;;18.70;12.33;;;25.70;69.40;;;;;;4952874;29;20209;-62
2022/07/20 07:13:41;;;;;;;17.87;12.60;;;25.60;66.90;;;;;;4953417;29;20260;-62
2022/07/20 07:16:08;;;;;;;22.70;12.30;;;25.60;87.40;;;;;;4952597;29;20213;-62
2022/07/20 07:18:35;;;;;;;21.30;12.03;;;25.70;73.50;;;;;;4953106;29;20586;-66
2022/07/20 07:21:03;;;;;;;20.07;12.70;;;25.80;78.20;;;;;;4952698;29;20217;-65
2022/07/20 07:23:30;;;;;;;24.10;13.17;;;25.90;77.80;;;;;;4952492;29;20260;-64
2022/07/20 07:25:57;;;;;;;18.90;12.90;;;25.80;80.20;;;;;;4953121;29;20279;-65
2022/07/20 07:28:23;;;;;;;18.20;12.93;;;26.00;86.60;;;;;;4952759;29;20273;-64
2022/07/20 07:30:50;;;;;;;18.93;13.63;;;26.10;83.90;;;;;;4952506;29;20208;-65
2022/07/20 07:33:19;;;;;;;17.10;13.00;;;26.20;83.20;;;;;;4952863;29;20272;-65
2022/07/20 07:35:46;;;;;;;23.70;14.23;;;26.30;88.20;;;;;;4955507;28;20247;-64
2022/07/20 07:38:14;;;;;;;22.97;14.53;;;26.40;90.00;;;;;;4956317;28;20283;-65
2022/07/20 07:40:41;;;;;;;20.73;13.50;;;26.50;88.90;;;;;;4956307;29;20240;-64
2022/07/20 07:43:08;;;;;;;22.50;13.97;;;26.50;90.30;;;;;;4956846;29;20217;-64
2022/07/20 07:45:34;;;;;;;20.77;13.40;;;26.60;91.80;;;;;;4956729;29;20219;-64
2022/07/20 07:48:01;;;;;;;19.90;14.20;;;26.80;92.90;;;;;;4956135;29;20232;-64
2022/07/20 07:50:28;;;;;;;22.77;14.80;;;27.10;96.50;;;;;;4956243;29;20319;-66
2022/07/20 07:52:54;;;;;;;23.67;14.63;;;27.10;96.10;;;;;;4956379;28;20267;-66
2022/07/20 07:55:23;;;;;;;23.90;15.40;;;27.40;96.60;;;;;;4956554;29;20209;-62
2022/07/20 07:57:49;;;;;;;22.27;15.57;;;27.40;97.80;;;;;;4956190;29;20213;-62
2022/07/20 08:00:17;;;;;;;28.43;15.07;;;27.60;97.10;;;;;;4956091;29;20229;-64
2022/07/20 08:02:44;;;;;;;23.20;14.90;;;27.70;97.90;;;;;;4956432;28;20227;-67
2022/07/20 08:05:10;;;;;;;20.63;14.67;;;27.70;97.80;;;;;;4956136;29;20209;-66
2022/07/20 08:07:39;;;;;;;24.57;15.00;;;27.70;98.50;;;;;;4949209;29;20226;-67
2022/07/20 08:10:08;;;;;;;24.77;16.00;;;27.80;99.30;;;;;;4936999;29;20248;-66
2022/07/20 08:12:37;;;;;;;20.57;15.33;;;27.80;99.50;;;;;;4937353;29;20292;-61
2022/07/20 08:15:05;;;;;;;21.97;15.80;;;27.90;98.80;;;;;;4937043;29;20217;-61
2022/07/20 08:17:32;;;;;;;21.53;16.33;;;27.80;98.70;;;;;;4936538;29;20213;-59
2022/07/20 08:19:59;;;;;;;22.63;16.97;;;27.90;97.40;;;;;;4936879;29;20226;-62
2022/07/20 08:22:26;;;;;;;28.20;17.17;;;27.70;96.80;;;;;;4936513;29;20210;-61
2022/07/20 08:24:52;;;;;;;23.73;16.30;;;27.80;99.70;;;;;;4937019;29;20206;-63
2022/07/20 08:27:21;;;;;;;25.40;16.93;;;28.00;99.60;;;;;;4936443;29;20229;-66
2022/07/20 08:29:49;;;;;;;23.93;16.43;;;28.20;98.90;;;;;;4936586;29;20229;-65
2022/07/20 08:32:16;;;;;;;26.67;17.57;;;28.20;99.20;;;;;;4936948;29;20265;-66
2022/07/20 08:34:43;;;;;;;22.20;16.10;;;28.20;99.40;;;;;;4936118;29;20210;-69
2022/07/20 08:37:10;;;;;;;27.67;17.30;;;28.30;99.90;;;;;;4936129;29;20237;-63
2022/07/20 08:39:38;;;;;;;25.00;17.60;;;28.30;99.90;;;;;;4936354;29;20229;-63
2022/07/20 08:42:06;;;;;;;22.57;17.13;;;28.20;99.90;;;;;;4936415;29;20241;-66
2022/07/20 08:44:33;;;;;;;25.57;18.20;;;28.20;99.90;;;;;;4935312;29;20277;-66
2022/07/20 08:47:02;;;;;;;21.17;16.77;;;28.40;99.30;;;;;;4935076;29;20233;-65
2022/07/20 08:49:30;;;;;;;24.83;16.27;;;28.40;99.90;;;;;;4936460;29;20233;-65
2022/07/20 08:51:58;;;;;;;25.60;17.30;;;28.60;99.90;;;;;;4936246;29;20294;-66
2022/07/20 08:54:25;;;;;;;24.10;18.47;;;28.70;99.90;;;;;;4936432;29;20477;-65
2022/07/20 08:56:52;;;;;;;29.23;18.07;;;28.70;99.90;;;;;;4936091;29;20264;-65
2022/07/20 08:59:18;;;;;;;25.13;17.27;;;28.90;99.90;;;;;;4940651;29;20288;-66
2022/07/20 09:01:58;;;;;;;23.77;18.10;;;29.00;99.90;;;;;;4953291;29;20721;-62
2022/07/20 09:04:26;;;;;;;23.17;16.97;;;28.90;99.90;;;;;;4955020;29;20208;-64
2022/07/20 09:06:53;;;;;;;23.27;17.60;;;29.00;99.90;;;;;;4954376;29;20291;-63
2022/07/20 09:09:22;;;;;;;31.13;18.27;;;28.90;99.90;;;;;;4955254;29;20236;-67
2022/07/20 09:11:50;;;;;;;26.90;19.07;;;29.10;99.90;;;;;;4954186;29;20300;-66
2022/07/20 09:14:36;;;;;;;25.53;18.80;;;29.00;99.90;;;;;;4955474;29;20243;-66
2022/07/20 09:17:15;;;;;;;22.53;18.00;;;29.00;99.90;;;;;;4954457;29;20216;-67
2022/07/20 09:19:56;;;;;;;24.90;17.63;;;29.10;99.90;;;;;;4955268;29;20228;-67
2022/07/20 09:22:31;;;;;;;23.10;18.17;;;29.20;99.90;;;;;;4949314;29;20301;-67
2022/07/20 09:25:07;;;;;;;31.23;19.93;;;29.10;99.90;;;;;;4936545;29;20213;-69
2022/07/20 09:27:34;;;;;;;27.17;18.67;;;29.30;99.90;;;;;;4935512;29;20233;-62
2022/07/20 09:30:09;;;;;;;25.43;18.40;;;29.20;99.90;;;;;;4935403;29;20285;-63
2022/07/20 09:32:50;;;;;;;25.57;18.13;;;29.30;99.90;;;;;;4935809;29;20209;-62
2022/07/20 09:35:19;;;;;;;25.87;17.17;;;29.50;99.90;;;;;;4935811;29;20673;-63
2022/07/20 09:37:47;;;;;;;22.77;16.20;;;29.50;99.90;;;;;;4935578;29;20206;-64
2022/07/20 09:40:13;;;;;;;25.77;16.00;;;29.30;99.90;;;;;;4935307;29;20277;-64
2022/07/20 09:42:41;;;;;;;22.80;16.13;;;29.40;99.90;;;;;;4935406;29;20205;-65
2022/07/20 09:45:26;;;;;;;18.67;13.77;;;29.50;99.90;;;;;;4935739;29;20265;-63
2022/07/20 09:48:21;;;;;;;18.10;13.43;;;29.40;99.90;;;;;;4934816;29;20261;-63
2022/07/20 09:50:49;;;;;;;21.80;14.83;;;29.40;99.90;;;;;;4926200;29;20237;-63
2022/07/20 09:53:16;;;;;;;20.40;13.40;;;29.50;99.90;;;;;;4934950;29;20704;-64
2022/07/20 09:55:44;;;;;;;18.57;13.63;;;29.50;99.90;;;;;;4935681;29;20308;-63
2022/07/20 09:58:11;;;;;;;23.17;14.30;;;29.50;99.90;;;;;;4934060;29;20233;-68
2022/07/20 10:00:38;;;;;;;18.73;13.57;;;29.70;99.90;;;;;;4934729;29;20281;-63
2022/07/20 10:03:06;;;;;;;17.73;14.17;;;29.90;99.90;;;;;;4935410;29;20217;-62
2022/07/20 10:05:35;;;;;;;21.63;15.33;;;30.10;99.90;;;;;;4934797;29;20217;-68
2022/07/20 10:08:06;;;;;;;21.30;14.40;;;30.10;88.80;;;;;;4934584;29;20303;-67
2022/07/20 10:10:33;;;;;;;23.53;14.07;;;30.00;88.80;;;;;;4934641;29;20230;-66
2022/07/20 10:13:01;;;;;;;24.07;14.13;;;30.00;99.90;;;;;;4934839;29;20213;-64
2022/07/20 10:15:34;;;;;;;19.90;14.37;;;29.80;99.90;;;;;;4935163;29;20801;-64
2022/07/20 10:18:01;;;;;;;20.27;14.23;;;29.60;80.50;;;;;;4934508;29;20233;-65
2022/07/20 10:20:38;;;;;;;20.70;14.53;;;29.80;99.90;;;;;;5128814;27;20566;-64
2022/07/20 10:23:33;;;;;;;18.40;14.67;;;29.80;99.90;;;;;;5129051;28;20669;-64
2022/07/20 10:26:00;;;;;;;18.13;13.47;;;29.70;99.90;;;;;;5129351;27;20207;-65
2022/07/20 10:28:36;;;;;;;22.90;13.27;;;29.80;99.90;;;;;;5129287;27;20323;-64
2022/07/20 10:31:06;;;;;;;21.33;13.77;;;30.10;99.90;;;;;;5129355;27;20211;-65
2022/07/20 10:33:35;;;;;;;18.00;12.97;;;30.20;99.90;;;;;;5129486;27;20231;-65
2022/07/20 10:39:19;;;;;;;17.37;13.47;;;30.30;99.90;;;;;;5129200;28;20230;-64
2022/07/20 10:42:06;;;;;;;18.93;13.43;;;30.50;99.90;;;;;;5128821;27;20625;-65
2022/07/20 10:44:33;;;;;;;20.13;13.10;;;30.70;93.20;;;;;;5128429;28;20255;-63
2022/07/20 10:47:00;;;;;;;16.70;12.97;;;30.60;99.90;;;;;;5128213;27;20207;-63
2022/07/20 10:50:05;;;;;;;17.47;13.07;;;30.50;91.30;;;;;;5129237;27;20715;-68
2022/07/20 10:52:35;;;;;;;18.83;12.37;;;30.20;99.90;;;;;;5123502;27;20207;-65
2022/07/20 10:55:04;;;;;;;18.00;12.10;;;30.20;88.30;;;;;;5129011;27;20209;-67
2022/07/20 10:57:31;;;;;;;18.23;13.27;;;30.30;99.90;;;;;;5128051;27;20289;-67
2022/07/20 11:00:03;;;;;;;18.37;12.80;;;30.20;99.90;;;;;;5128038;27;20829;-63
2022/07/20 11:02:32;;;;;;;19.73;13.83;;;30.20;99.90;;;;;;5128722;27;20684;-66
2022/07/20 11:04:59;;;;;;;19.57;13.60;;;30.40;99.90;;;;;;5128527;27;20673;-69
2022/07/20 11:07:31;;;;;;;21.07;13.97;;;30.60;99.90;;;;;;5128705;27;20213;-68
2022/07/20 11:10:00;;;;;;;19.67;12.83;;;30.50;99.90;;;;;;5128675;27;20717;-67
2022/07/20 11:12:28;;;;;;;18.90;12.57;;;30.50;99.90;;;;;;5127833;27;20199;-64
2022/07/20 11:14:56;;;;;;;20.50;13.07;;;30.50;99.90;;;;;;5128561;27;20267;-64
2022/07/20 11:17:23;;;;;;;18.13;12.17;;;30.40;99.90;;;;;;5128037;27;20233;-64
2022/07/20 11:19:50;;;;;;;17.83;12.67;;;30.20;99.90;;;;;;5128399;27;20705;-64
2022/07/20 11:22:17;;;;;;;19.37;11.93;;;30.20;99.90;;;;;;5128411;27;20256;-66
2022/07/20 11:24:44;;;;;;;16.57;12.33;;;30.00;99.90;;;;;;5127774;27;20203;-67
2022/07/20 11:27:16;;;;;;;17.37;11.83;;;30.30;99.90;;;;;;5127996;27;20558;-72
2022/07/20 11:29:47;;;;;;;17.73;11.17;;;30.50;99.90;;;;;;5127660;27;20279;-72
2022/07/20 11:32:14;;;;;;;18.47;10.80;;;30.50;99.90;;;;;;5114661;28;20557;-70
2022/07/20 11:34:51;;;;;;;18.30;10.53;;;30.40;99.90;;;;;;5115031;28;20631;-69
2022/07/20 11:37:20;;;;;;;18.83;11.73;;;30.00;99.90;;;;;;5113764;28;20211;-66
2022/07/20 11:39:47;;;;;;;15.80;11.13;;;30.30;99.90;;;;;;5114412;28;20231;-68
2022/07/20 11:42:16;;;;;;;16.70;11.37;;;30.50;99.90;;;;;;5114015;28;20204;-66
2022/07/20 11:44:59;;;;;;;17.50;11.80;;;30.50;99.90;;;;;;5114402;28;20212;-65
2022/07/20 11:47:25;;;;;;;18.87;11.53;;;30.30;99.90;;;;;;5113732;28;20231;-68
2022/07/20 11:50:08;;;;;;;19.07;13.00;;;30.30;99.90;;;;;;5114044;28;20480;-69
2022/07/20 11:52:39;;;;;;;16.40;12.43;;;30.50;99.90;;;;;;5114311;28;20734;-70
2022/07/20 11:55:07;;;;;;;16.90;12.00;;;30.50;99.90;;;;;;5114334;28;20294;-73
2022/07/20 11:57:36;;;;;;;19.87;12.63;;;30.30;99.90;;;;;;5114174;27;20249;-65
2022/07/20 12:00:04;;;;;;;18.27;12.03;;;30.30;99.90;;;;;;5113640;28;20227;-65
2022/07/20 12:02:31;;;;;;;20.53;12.37;;;30.10;99.90;;;;;;5113998;28;20203;-64
2022/07/20 12:04:59;;;;;;;19.13;13.30;;;30.10;99.90;;;;;;5113966;28;20257;-64
2022/07/20 12:10:21;;;;;;;18.60;13.30;;;30.10;99.90;;;;;;5113821;28;20341;-66
2022/07/20 12:13:01;;;;;;;17.23;12.67;;;30.30;99.90;;;;;;5113333;28;20707;-65
2022/07/20 12:15:28;;;;;;;19.60;11.77;;;30.20;99.90;;;;;;5113722;28;20681;-64
2022/07/20 12:17:54;;;;;;;17.53;12.17;;;30.40;99.90;;;;;;5113264;28;20204;-64
2022/07/20 12:20:22;;;;;;;17.53;11.40;;;30.20;99.90;;;;;;5113264;28;20242;-64
2022/07/20 12:22:54;;;;;;;18.13;10.80;;;30.50;99.90;;;;;;5113493;28;20208;-64
2022/07/20 12:25:22;;;;;;;17.67;12.13;;;30.80;99.90;;;;;;5113113;28;20727;-64
2022/07/20 12:27:50;;;;;;;14.27;10.83;;;30.80;95.70;;;;;;5113336;28;20585;-66
2022/07/20 12:30:27;;;;;;;19.27;11.73;;;30.70;99.90;;;;;;5112630;28;20219;-66
2022/07/20 12:33:05;;;;;;;18.37;11.10;;;30.50;93.80;;;;;;5113735;28;20264;-68
2022/07/20 12:35:32;;;;;;;19.90;11.43;;;30.60;93.20;;;;;;5092987;28;20208;-66
2022/07/20 12:37:59;;;;;;;16.60;11.17;;;30.50;93.60;;;;;;5091804;28;20267;-65
2022/07/20 12:40:38;;;;;;;14.53;11.23;;;30.30;91.50;;;;;;5092764;28;20232;-65
2022/07/20 12:43:26;;;;;;;19.10;11.97;;;30.40;99.90;;;;;;5091469;28;20218;-63
2022/07/20 12:45:53;;;;;;;15.87;11.03;;;30.40;99.90;;;;;;5092620;28;20255;-62
2022/07/20 12:48:19;;;;;;;17.10;11.47;;;30.40;99.90;;;;;;5092527;28;20204;-64
2022/07/20 12:50:46;;;;;;;16.00;11.80;;;30.50;99.90;;;;;;5092519;28;20200;-64
2022/07/20 12:53:13;;;;;;;17.70;12.13;;;30.70;99.90;;;;;;5092454;28;20238;-63
2022/07/20 12:55:40;;;;;;;14.73;10.73;;;30.60;92.40;;;;;;5092544;28;20746;-64
2022/07/20 12:58:08;;;;;;;20.13;12.40;;;30.60;93.90;;;;;;5092459;28;20249;-64